Time;durP1;ratioP1;P1;durP2;ratioP2;P2;SDS_P1;SDS_P2;PMS_P1;PMS_P2;Temp;Humidity;BMP_temperature;BMP_pressure;BME280_temperature;BME280_humidity;BME280_pressure;Samples;Min_cycle;Max_cycle;Signal;HPM_P1;HPM_P2
2023/03/18 00:01:55;;;;;;;3.80;1.80;;;8.10;81.60;;;;;;5015451;28;20057;-62
2023/03/18 00:04:29;;;;;;;3.28;1.40;;;8.10;81.60;;;;;;5011752;28;20131;-61
2023/03/18 00:07:03;;;;;;;3.20;1.48;;;8.10;81.70;;;;;;5015154;28;20087;-62
2023/03/18 00:09:37;;;;;;;5.53;1.98;;;8.10;81.70;;;;;;5012180;28;20060;-62
2023/03/18 00:12:11;;;;;;;7.03;2.22;;;8.00;81.90;;;;;;5013564;28;20447;-61
2023/03/18 00:14:44;;;;;;;3.83;1.92;;;8.00;82.00;;;;;;5015902;28;20041;-61
2023/03/18 00:17:18;;;;;;;5.35;2.28;;;8.00;81.90;;;;;;5014154;28;20060;-62
2023/03/18 00:19:52;;;;;;;5.00;2.08;;;8.00;82.00;;;;;;5015701;28;20133;-61
2023/03/18 00:22:26;;;;;;;6.55;2.40;;;8.00;82.00;;;;;;5015387;28;20040;-61
2023/03/18 00:24:59;;;;;;;6.10;2.83;;;8.00;82.10;;;;;;5014861;28;20064;-63
2023/03/18 00:27:26;;;;;;;6.13;2.63;;;8.00;82.10;;;;;;5010356;28;20461;-61
2023/03/18 00:30:00;;;;;;;6.30;2.33;;;8.00;82.20;;;;;;4997335;28;20131;-61
2023/03/18 00:32:34;;;;;;;5.53;2.63;;;8.00;82.10;;;;;;5013411;28;20053;-61
2023/03/18 00:35:11;;;;;;;6.20;2.58;;;8.00;82.10;;;;;;5013176;28;20053;-62
2023/03/18 00:37:44;;;;;;;8.82;3.00;;;8.10;82.20;;;;;;5016056;28;20045;-62
2023/03/18 00:40:19;;;;;;;6.72;2.97;;;8.10;82.20;;;;;;5014866;28;20559;-61
2023/03/18 00:43:06;;;;;;;6.85;3.25;;;8.10;82.20;;;;;;5011540;28;20622;-63
2023/03/18 00:45:47;;;;;;;8.00;3.80;;;8.00;82.20;;;;;;5015305;28;20046;-62
2023/03/18 00:48:21;;;;;;;7.20;3.20;;;8.10;82.40;;;;;;5015246;28;20073;-61
2023/03/18 00:50:56;;;;;;;6.70;3.28;;;8.00;82.50;;;;;;5013004;28;20037;-60
2023/03/18 00:53:30;;;;;;;8.93;3.22;;;8.00;82.50;;;;;;5010761;28;20631;-61
2023/03/18 00:56:04;;;;;;;5.40;3.22;;;8.00;82.50;;;;;;4990711;28;20045;-62
2023/03/18 00:58:38;;;;;;;9.23;3.80;;;8.00;82.40;;;;;;5016151;28;20485;-63
2023/03/18 01:01:12;;;;;;;9.27;3.80;;;8.00;82.50;;;;;;5019080;28;20041;-62
2023/03/18 01:03:48;;;;;;;6.53;3.25;;;8.00;82.70;;;;;;5016183;28;20489;-61
2023/03/18 01:06:24;;;;;;;9.77;3.67;;;8.00;82.80;;;;;;4984563;28;20077;-66
2023/03/18 01:09:00;;;;;;;9.30;3.85;;;8.00;82.90;;;;;;5016042;28;20062;-67
2023/03/18 01:11:34;;;;;;;6.55;3.03;;;7.90;82.80;;;;;;5017071;28;20046;-62
2023/03/18 01:14:08;;;;;;;6.90;3.60;;;7.90;82.80;;;;;;5018917;28;20049;-61
2023/03/18 01:16:41;;;;;;;8.77;3.50;;;8.00;82.80;;;;;;5017531;28;20555;-65
2023/03/18 01:19:14;;;;;;;11.40;3.50;;;8.00;82.80;;;;;;5000352;28;20386;-64
2023/03/18 01:21:50;;;;;;;7.90;3.63;;;8.00;82.90;;;;;;5000670;28;20053;-70
2023/03/18 01:24:24;;;;;;;6.85;3.80;;;8.00;82.80;;;;;;4998896;28;20071;-71
2023/03/18 01:26:58;;;;;;;6.88;3.50;;;7.90;82.80;;;;;;5037642;28;20049;-61
2023/03/18 01:29:26;;;;;;;7.38;3.30;;;7.90;82.70;;;;;;5008182;28;20049;-61
2023/03/18 01:32:00;;;;;;;7.75;3.30;;;7.90;82.60;;;;;;5020274;28;20049;-71
2023/03/18 01:34:35;;;;;;;6.68;3.38;;;7.90;82.60;;;;;;5038264;28;20049;-72
2023/03/18 01:37:10;;;;;;;6.47;3.15;;;7.90;82.60;;;;;;5019907;28;20084;-68
2023/03/18 01:39:47;;;;;;;6.97;3.58;;;7.90;82.60;;;;;;5019815;28;20041;-66
2023/03/18 01:42:23;;;;;;;8.30;3.08;;;7.90;82.60;;;;;;5028087;28;20135;-60
2023/03/18 01:45:24;;;;;;;7.97;3.53;;;7.90;82.80;;;;;;5032220;28;20076;-59
2023/03/18 01:48:00;;;;;;;8.23;3.72;;;7.90;82.80;;;;;;5036780;28;20045;-60
2023/03/18 01:50:36;;;;;;;5.45;3.10;;;7.90;82.70;;;;;;5038213;28;20041;-60
2023/03/18 01:53:14;;;;;;;5.57;3.00;;;7.90;82.60;;;;;;5018035;28;20041;-59
2023/03/18 01:55:51;;;;;;;6.00;3.53;;;7.90;82.70;;;;;;5038814;28;20045;-62
2023/03/18 01:58:27;;;;;;;6.93;3.22;;;7.90;82.90;;;;;;5019411;28;20049;-62
2023/03/18 02:01:04;;;;;;;7.57;3.67;;;7.80;83.00;;;;;;5011050;28;20539;-61
2023/03/18 02:03:40;;;;;;;6.80;3.10;;;7.90;82.90;;;;;;5035366;28;20105;-62
2023/03/18 02:06:13;;;;;;;8.32;3.55;;;7.90;83.00;;;;;;5037087;28;20395;-61
2023/03/18 02:08:56;;;;;;;6.45;3.38;;;7.80;83.00;;;;;;5019422;28;20440;-61
2023/03/18 02:11:32;;;;;;;7.00;3.45;;;7.90;82.90;;;;;;5016982;28;20061;-61
2023/03/18 02:14:09;;;;;;;6.07;3.38;;;7.90;82.90;;;;;;5009645;28;20064;-63
2023/03/18 02:16:47;;;;;;;6.05;3.28;;;7.90;82.90;;;;;;5015793;28;20073;-63
2023/03/18 02:19:33;;;;;;;6.10;3.15;;;7.90;83.00;;;;;;5006007;28;20046;-64
2023/03/18 02:22:18;;;;;;;7.10;3.58;;;7.90;83.00;;;;;;5010699;28;20053;-66
2023/03/18 02:25:11;;;;;;;8.50;3.83;;;7.90;83.20;;;;;;5016844;28;20083;-67
2023/03/18 02:27:50;;;;;;;9.02;3.85;;;7.90;83.20;;;;;;5018251;28;20095;-61
2023/03/18 02:30:28;;;;;;;5.97;2.90;;;7.90;83.20;;;;;;5015577;28;20037;-62
2023/03/18 02:33:04;;;;;;;7.03;3.40;;;7.90;83.50;;;;;;5018591;28;20052;-61
2023/03/18 02:35:38;;;;;;;7.38;3.47;;;7.90;83.50;;;;;;5036778;28;20561;-60
2023/03/18 02:38:12;;;;;;;8.23;3.20;;;7.90;83.60;;;;;;5018182;28;20046;-61
2023/03/18 02:40:46;;;;;;;8.40;3.22;;;7.90;83.40;;;;;;5035787;28;20116;-72
2023/03/18 02:43:26;;;;;;;7.53;3.78;;;7.90;83.10;;;;;;5024119;28;20050;-71
2023/03/18 02:46:18;;;;;;;6.07;3.35;;;8.00;83.00;;;;;;4997841;28;20456;-62
2023/03/18 02:48:53;;;;;;;8.13;4.13;;;8.00;82.90;;;;;;5035277;28;20045;-60
2023/03/18 02:51:26;;;;;;;7.22;3.80;;;8.00;82.80;;;;;;5036976;28;20045;-62
2023/03/18 02:54:04;;;;;;;9.05;3.75;;;8.00;82.80;;;;;;5025679;28;20061;-62
2023/03/18 02:56:38;;;;;;;8.30;4.13;;;8.00;83.00;;;;;;5009308;28;20123;-63
2023/03/18 02:59:13;;;;;;;7.32;3.60;;;7.90;83.10;;;;;;5034618;28;20483;-64
2023/03/18 03:01:49;;;;;;;7.05;3.45;;;7.90;83.20;;;;;;5008156;28;20252;-65
2023/03/18 03:04:25;;;;;;;7.68;3.65;;;7.90;83.30;;;;;;5017912;28;20044;-65
2023/03/18 03:07:00;;;;;;;7.78;4.00;;;7.90;83.30;;;;;;5016046;28;20053;-66
2023/03/18 03:09:44;;;;;;;6.72;3.25;;;7.90;83.20;;;;;;5010748;28;20049;-65
2023/03/18 03:12:19;;;;;;;6.97;3.55;;;7.90;83.30;;;;;;5017338;28;20049;-62
2023/03/18 03:14:58;;;;;;;6.15;3.40;;;7.90;83.30;;;;;;5016562;28;20061;-62
2023/03/18 03:17:33;;;;;;;9.77;3.95;;;7.90;83.20;;;;;;5009433;28;20049;-58
2023/03/18 03:20:08;;;;;;;6.93;3.55;;;7.90;83.10;;;;;;5015239;28;20041;-59
2023/03/18 03:22:42;;;;;;;8.02;3.25;;;8.00;83.10;;;;;;5012706;28;20128;-62
2023/03/18 03:25:18;;;;;;;5.57;2.95;;;8.00;83.00;;;;;;5030317;28;20096;-62
2023/03/18 03:27:51;;;;;;;7.35;3.50;;;8.00;83.00;;;;;;4997521;28;20064;-62
2023/03/18 03:30:26;;;;;;;7.20;3.90;;;8.00;82.80;;;;;;5014880;28;20440;-61
2023/03/18 03:33:01;;;;;;;7.63;3.28;;;8.00;82.70;;;;;;5014917;28;20309;-62
2023/03/18 03:35:35;;;;;;;7.97;3.63;;;8.00;82.80;;;;;;5014486;28;20054;-61
2023/03/18 03:38:02;;;;;;;7.22;3.45;;;7.90;82.80;;;;;;5015653;28;20056;-62
2023/03/18 03:40:37;;;;;;;7.45;3.28;;;7.90;82.90;;;;;;5014879;28;20049;-62
2023/03/18 03:43:18;;;;;;;7.82;3.83;;;7.90;83.00;;;;;;5013966;28;20067;-62
2023/03/18 03:46:06;;;;;;;7.57;3.43;;;7.90;83.10;;;;;;5034996;28;20085;-61
2023/03/18 03:48:40;;;;;;;5.88;3.13;;;7.90;83.20;;;;;;5014677;28;20131;-60
2023/03/18 03:51:14;;;;;;;7.68;3.50;;;7.90;83.40;;;;;;5028607;28;20061;-61
2023/03/18 03:53:48;;;;;;;6.70;3.42;;;7.90;83.40;;;;;;4996554;28;20537;-62
2023/03/18 03:56:21;;;;;;;9.77;3.97;;;7.90;83.40;;;;;;4996180;28;20042;-60
2023/03/18 03:58:55;;;;;;;5.45;3.10;;;7.90;83.70;;;;;;4995463;28;20417;-60
2023/03/18 04:01:47;;;;;;;5.97;3.17;;;7.90;83.70;;;;;;4997572;28;20083;-65
2023/03/18 04:04:29;;;;;;;8.82;3.53;;;7.90;83.70;;;;;;5011866;28;20104;-65
2023/03/18 04:07:03;;;;;;;7.65;3.55;;;7.90;83.70;;;;;;5002414;28;20049;-63
2023/03/18 04:09:37;;;;;;;6.22;3.42;;;7.90;83.70;;;;;;5015347;28;20049;-64
2023/03/18 04:12:10;;;;;;;7.95;3.15;;;7.90;83.70;;;;;;4994801;28;20293;-61
2023/03/18 04:14:47;;;;;;;6.85;3.50;;;7.90;83.70;;;;;;5010115;28;20518;-61
2023/03/18 04:17:22;;;;;;;7.50;3.67;;;7.90;83.70;;;;;;5030001;28;20099;-61
2023/03/18 04:19:56;;;;;;;5.90;3.13;;;7.90;83.80;;;;;;5013264;28;20129;-61
2023/03/18 04:22:32;;;;;;;6.68;3.22;;;7.90;83.90;;;;;;5012211;28;20480;-60
2023/03/18 04:25:09;;;;;;;6.97;3.35;;;7.90;83.80;;;;;;4995668;28;20107;-62
2023/03/18 04:27:43;;;;;;;6.40;3.20;;;7.90;83.80;;;;;;5003826;28;20045;-59
2023/03/18 04:30:19;;;;;;;6.95;3.20;;;7.80;83.80;;;;;;4990123;28;20057;-62
2023/03/18 04:33:13;;;;;;;8.02;3.65;;;7.90;83.80;;;;;;5038189;28;20059;-64
2023/03/18 04:35:48;;;;;;;8.68;3.50;;;7.80;84.00;;;;;;5013587;28;20078;-60
2023/03/18 04:38:21;;;;;;;5.72;3.03;;;7.80;83.90;;;;;;5039121;28;20122;-61
2023/03/18 04:40:55;;;;;;;6.57;3.67;;;7.80;83.90;;;;;;5017609;28;20050;-61
2023/03/18 04:43:28;;;;;;;8.20;3.83;;;7.80;83.90;;;;;;5017445;28;20128;-61
2023/03/18 04:46:01;;;;;;;8.05;3.63;;;7.80;83.80;;;;;;5019375;28;20487;-59
2023/03/18 04:48:36;;;;;;;7.10;3.30;;;7.80;83.80;;;;;;5002087;28;20065;-61
2023/03/18 04:51:11;;;;;;;7.47;3.70;;;7.80;83.90;;;;;;4999121;28;20054;-65
2023/03/18 04:53:45;;;;;;;8.40;3.72;;;7.80;84.00;;;;;;5012673;28;20051;-65
2023/03/18 04:56:19;;;;;;;7.93;3.38;;;7.80;84.10;;;;;;5035845;28;20061;-65
2023/03/18 04:58:54;;;;;;;7.72;3.15;;;7.80;84.20;;;;;;5016724;28;20417;-63
2023/03/18 05:01:32;;;;;;;7.90;3.65;;;7.80;84.40;;;;;;5018937;28;20049;-61
2023/03/18 05:04:07;;;;;;;8.48;3.65;;;7.80;84.60;;;;;;5019068;28;20148;-61
2023/03/18 05:06:46;;;;;;;6.40;3.58;;;7.80;84.80;;;;;;5017211;28;20042;-60
2023/03/18 05:09:26;;;;;;;6.65;3.42;;;7.80;84.90;;;;;;5019897;28;20128;-60
2023/03/18 05:11:59;;;;;;;8.82;3.45;;;7.70;84.90;;;;;;5019400;28;20389;-62
2023/03/18 05:14:35;;;;;;;7.32;3.72;;;7.70;85.10;;;;;;5028125;28;20056;-61
2023/03/18 05:17:14;;;;;;;7.60;3.72;;;7.70;85.00;;;;;;5036128;28;20099;-64
2023/03/18 05:19:57;;;;;;;9.13;3.97;;;7.80;84.90;;;;;;5017796;28;20497;-64
2023/03/18 05:22:30;;;;;;;8.60;3.67;;;7.70;85.00;;;;;;5016640;28;20050;-64
2023/03/18 05:25:18;;;;;;;7.40;4.03;;;7.70;85.10;;;;;;4999027;28;20068;-65
2023/03/18 05:27:53;;;;;;;7.18;3.40;;;7.70;85.20;;;;;;5020438;28;20060;-72
2023/03/18 05:30:28;;;;;;;6.68;3.45;;;7.70;85.10;;;;;;5009835;28;20439;-71
2023/03/18 05:33:02;;;;;;;6.10;3.50;;;7.70;85.20;;;;;;5033085;28;20041;-63
2023/03/18 05:35:44;;;;;;;8.05;3.65;;;7.70;85.00;;;;;;5011704;28;20116;-63
2023/03/18 05:38:19;;;;;;;5.97;3.50;;;7.70;85.10;;;;;;5010106;28;20056;-64
2023/03/18 05:40:53;;;;;;;7.68;3.47;;;7.70;85.30;;;;;;5036020;28;20060;-64
2023/03/18 05:43:33;;;;;;;7.50;3.70;;;7.60;85.50;;;;;;5018808;28;20396;-65
2023/03/18 05:46:13;;;;;;;9.10;3.97;;;7.70;85.50;;;;;;5025153;28;20061;-63
2023/03/18 05:49:07;;;;;;;7.00;3.67;;;7.70;85.60;;;;;;5035841;28;20333;-64
2023/03/18 05:51:50;;;;;;;6.80;3.90;;;7.70;85.70;;;;;;5036085;28;20112;-69
2023/03/18 05:54:37;;;;;;;6.20;3.25;;;7.70;85.60;;;;;;5017856;28;20044;-69
2023/03/18 05:57:14;;;;;;;10.02;3.80;;;7.70;85.70;;;;;;5015145;28;20053;-61
2023/03/18 05:59:49;;;;;;;6.75;3.60;;;7.70;85.70;;;;;;5034767;28;20148;-61
2023/03/18 06:02:17;;;;;;;8.05;4.03;;;7.70;85.60;;;;;;5017070;28;20426;-61
2023/03/18 06:04:50;;;;;;;8.07;3.50;;;7.70;85.60;;;;;;5017764;28;20041;-61
2023/03/18 06:07:26;;;;;;;6.28;3.60;;;7.70;85.60;;;;;;5035029;28;20107;-64
2023/03/18 06:10:00;;;;;;;8.07;4.18;;;7.70;85.60;;;;;;5011279;28;20064;-65
2023/03/18 06:12:34;;;;;;;7.28;3.90;;;7.70;85.60;;;;;;5036031;28;20073;-63
2023/03/18 06:15:11;;;;;;;9.38;3.88;;;7.80;85.50;;;;;;5033415;28;20128;-64
2023/03/18 06:17:45;;;;;;;8.93;3.60;;;7.70;85.60;;;;;;5018391;28;20045;-70
2023/03/18 06:20:18;;;;;;;6.85;3.70;;;7.80;85.60;;;;;;5013634;28;20084;-70
2023/03/18 06:22:53;;;;;;;6.63;3.20;;;7.80;85.30;;;;;;5034432;28;20111;-70
2023/03/18 06:25:27;;;;;;;8.98;4.00;;;7.80;85.20;;;;;;5017381;28;20045;-69
2023/03/18 06:28:01;;;;;;;6.60;3.65;;;7.80;85.40;;;;;;5017410;28;20053;-69
2023/03/18 06:30:34;;;;;;;6.93;3.80;;;7.90;85.30;;;;;;5036461;28;20492;-70
2023/03/18 06:33:10;;;;;;;8.70;4.25;;;7.90;85.30;;;;;;5007258;28;20107;-69
2023/03/18 06:35:44;;;;;;;7.82;3.92;;;7.90;85.30;;;;;;5010317;28;20071;-70
2023/03/18 06:38:19;;;;;;;6.80;3.80;;;7.90;85.30;;;;;;5018234;28;20041;-70
2023/03/18 06:40:56;;;;;;;7.22;3.88;;;7.90;85.30;;;;;;5017336;28;20369;-71
2023/03/18 06:43:42;;;;;;;6.88;3.60;;;8.00;85.00;;;;;;5015579;28;20056;-69
2023/03/18 06:46:22;;;;;;;7.00;4.28;;;8.00;84.80;;;;;;5018296;28;20130;-69
2023/03/18 06:49:03;;;;;;;6.75;3.85;;;8.00;84.70;;;;;;5017914;28;20045;-71
2023/03/18 06:51:41;;;;;;;7.22;3.55;;;8.00;84.70;;;;;;5017511;28;20048;-61
2023/03/18 06:54:18;;;;;;;6.53;3.28;;;8.00;84.90;;;;;;5017104;28;20474;-62
2023/03/18 06:56:51;;;;;;;7.53;3.95;;;8.10;85.00;;;;;;5034846;28;20043;-61
2023/03/18 06:59:25;;;;;;;8.65;4.05;;;8.10;85.10;;;;;;5017433;28;20438;-62
2023/03/18 07:01:58;;;;;;;6.35;3.88;;;8.20;85.10;;;;;;5018116;28;20056;-63
2023/03/18 07:04:32;;;;;;;5.88;3.40;;;8.20;85.00;;;;;;5036297;28;20136;-62
2023/03/18 07:07:06;;;;;;;6.75;3.97;;;8.20;85.20;;;;;;5034019;28;20416;-62
2023/03/18 07:09:43;;;;;;;9.23;4.35;;;8.20;85.20;;;;;;5017295;28;20448;-61
2023/03/18 07:12:18;;;;;;;8.80;4.30;;;8.30;85.10;;;;;;5035722;28;20045;-62
2023/03/18 07:14:52;;;;;;;8.77;4.13;;;8.30;84.40;;;;;;5008650;28;20040;-62
2023/03/18 07:17:25;;;;;;;8.43;3.80;;;8.40;84.90;;;;;;5027876;28;20056;-61
2023/03/18 07:19:59;;;;;;;7.57;4.13;;;8.30;84.70;;;;;;5018356;28;20107;-61
2023/03/18 07:22:34;;;;;;;7.63;4.03;;;8.40;84.90;;;;;;5007676;28;20408;-62
2023/03/18 07:25:12;;;;;;;8.25;4.00;;;8.50;84.90;;;;;;5025916;28;20559;-63
2023/03/18 07:27:45;;;;;;;8.20;4.20;;;8.50;84.80;;;;;;5015321;28;20057;-63
2023/03/18 07:30:20;;;;;;;8.45;3.88;;;8.60;84.90;;;;;;5015849;28;20053;-64
2023/03/18 07:32:54;;;;;;;7.88;4.10;;;8.60;84.90;;;;;;4998244;28;20056;-61
2023/03/18 07:35:27;;;;;;;7.65;4.28;;;8.60;84.70;;;;;;5026244;28;20052;-62
2023/03/18 07:38:01;;;;;;;8.73;4.35;;;8.60;84.80;;;;;;5034141;28;20044;-64
2023/03/18 07:40:36;;;;;;;8.15;4.07;;;8.70;84.60;;;;;;5036065;28;20221;-64
2023/03/18 07:43:10;;;;;;;7.38;3.78;;;8.80;84.50;;;;;;5027445;28;20045;-64
2023/03/18 07:45:50;;;;;;;6.68;3.75;;;8.80;84.60;;;;;;5031135;28;20052;-62
2023/03/18 07:48:24;;;;;;;7.70;3.78;;;8.90;84.40;;;;;;5014770;28;20045;-61
2023/03/18 07:50:59;;;;;;;8.30;3.50;;;9.00;84.20;;;;;;5014821;28;20154;-69
2023/03/18 07:53:32;;;;;;;7.72;3.83;;;9.00;83.70;;;;;;5014273;28;20135;-69
2023/03/18 07:56:08;;;;;;;7.03;3.33;;;9.20;83.70;;;;;;5010229;28;20176;-69
2023/03/18 07:58:42;;;;;;;6.82;3.30;;;9.20;83.50;;;;;;4990243;28;20422;-68
2023/03/18 08:01:17;;;;;;;7.18;3.67;;;9.30;83.70;;;;;;5006247;28;20128;-62
2023/03/18 08:03:50;;;;;;;8.82;3.90;;;9.40;83.50;;;;;;5014762;28;20073;-63
2023/03/18 08:06:25;;;;;;;7.35;3.78;;;9.50;83.30;;;;;;5014977;28;20129;-70
2023/03/18 08:08:58;;;;;;;10.07;4.05;;;9.60;83.30;;;;;;5034118;28;20083;-70
2023/03/18 08:11:33;;;;;;;8.98;3.15;;;9.60;83.00;;;;;;5031884;28;20080;-61
2023/03/18 08:14:07;;;;;;;7.30;3.88;;;9.70;83.20;;;;;;5028025;28;20044;-62
2023/03/18 08:16:46;;;;;;;6.75;3.08;;;9.70;83.00;;;;;;5025386;28;20049;-69
2023/03/18 08:19:20;;;;;;;7.28;3.20;;;9.80;82.90;;;;;;5035239;28;20057;-69
2023/03/18 08:21:54;;;;;;;6.90;3.60;;;9.80;82.80;;;;;;5031100;28;20071;-61
2023/03/18 08:24:28;;;;;;;7.38;3.40;;;9.80;82.70;;;;;;5031013;28;20146;-62
2023/03/18 08:27:04;;;;;;;6.40;3.38;;;9.90;82.70;;;;;;5026759;28;20041;-59
2023/03/18 08:29:37;;;;;;;7.82;3.58;;;9.90;82.70;;;;;;5032766;28;20507;-59
2023/03/18 08:32:11;;;;;;;8.65;3.83;;;9.90;82.60;;;;;;5008236;28;20053;-61
2023/03/18 08:34:45;;;;;;;7.68;3.78;;;9.90;82.70;;;;;;5012173;28;20536;-61
2023/03/18 08:37:19;;;;;;;7.70;3.40;;;9.90;82.80;;;;;;5033421;28;20396;-61
2023/03/18 08:39:52;;;;;;;7.53;3.60;;;9.90;82.70;;;;;;5013017;28;20053;-61
2023/03/18 08:42:26;;;;;;;7.53;3.80;;;10.00;82.60;;;;;;5011110;28;20046;-69
2023/03/18 08:45:08;;;;;;;5.90;3.45;;;10.20;82.30;;;;;;5019879;28;20520;-68
2023/03/18 08:47:41;;;;;;;7.07;3.60;;;10.20;82.10;;;;;;5033166;28;20041;-59
2023/03/18 08:50:15;;;;;;;8.43;3.92;;;10.40;81.90;;;;;;5012072;28;20481;-59
2023/03/18 08:52:49;;;;;;;8.98;3.95;;;10.50;81.60;;;;;;5004827;28;20144;-61
2023/03/18 08:55:22;;;;;;;8.10;3.45;;;10.70;81.30;;;;;;5007941;28;20072;-62
2023/03/18 08:57:58;;;;;;;7.53;3.40;;;10.80;81.10;;;;;;5008478;28;20519;-62
2023/03/18 09:00:31;;;;;;;5.80;3.10;;;11.00;80.90;;;;;;5007845;28;20069;-63
2023/03/18 09:03:06;;;;;;;6.20;3.13;;;11.10;80.20;;;;;;5002803;28;20052;-63
2023/03/18 09:05:39;;;;;;;6.97;3.28;;;11.30;80.10;;;;;;5008532;28;20042;-63
2023/03/18 09:08:12;;;;;;;7.78;3.40;;;11.50;79.40;;;;;;5010871;28;20041;-63
2023/03/18 09:10:45;;;;;;;8.55;3.15;;;11.60;79.00;;;;;;5010721;28;20662;-63
2023/03/18 09:13:21;;;;;;;6.35;2.90;;;11.80;78.90;;;;;;4990030;28;20056;-59
2023/03/18 09:15:54;;;;;;;5.50;3.20;;;12.00;78.50;;;;;;5005351;28;20079;-69
2023/03/18 09:18:28;;;;;;;6.25;3.20;;;12.20;78.00;;;;;;5008748;28;20046;-69
2023/03/18 09:21:02;;;;;;;6.90;3.33;;;12.30;77.70;;;;;;5015648;28;20053;-67
2023/03/18 09:23:35;;;;;;;8.48;3.13;;;12.40;76.80;;;;;;5014148;28;20044;-67
2023/03/18 09:26:02;;;;;;;6.43;3.60;;;12.60;76.50;;;;;;5014504;28;20401;-68
2023/03/18 09:28:37;;;;;;;7.90;3.58;;;12.80;76.00;;;;;;5012953;28;20053;-69
2023/03/18 09:31:11;;;;;;;7.03;3.70;;;13.00;75.50;;;;;;5012111;28;20061;-63
2023/03/18 09:33:45;;;;;;;6.63;3.67;;;13.10;74.40;;;;;;5012637;28;20045;-64
2023/03/18 09:36:19;;;;;;;7.95;3.60;;;13.20;73.70;;;;;;5018768;28;20076;-60
2023/03/18 09:38:52;;;;;;;4.88;2.90;;;13.20;72.80;;;;;;5013443;28;20085;-59
2023/03/18 09:41:38;;;;;;;5.90;2.97;;;13.30;72.60;;;;;;5016401;28;20052;-61
2023/03/18 09:44:28;;;;;;;4.75;2.80;;;13.40;72.70;;;;;;5014174;28;20053;-60
2023/03/18 09:47:17;;;;;;;5.38;2.60;;;13.40;71.90;;;;;;4991843;28;20046;-63
2023/03/18 09:50:04;;;;;;;7.47;2.80;;;13.50;71.40;;;;;;5013238;28;20037;-64
2023/03/18 09:52:40;;;;;;;5.70;2.58;;;13.60;70.40;;;;;;5034754;28;20698;-63
2023/03/18 09:55:23;;;;;;;6.68;2.63;;;13.80;70.20;;;;;;5010062;28;20064;-64
2023/03/18 09:58:01;;;;;;;7.55;2.60;;;14.00;69.90;;;;;;5010100;28;20396;-68
2023/03/18 10:00:38;;;;;;;5.50;2.67;;;14.20;69.60;;;;;;5009987;28;20034;-68
2023/03/18 10:03:15;;;;;;;6.60;2.88;;;14.20;70.30;;;;;;5010167;28;20342;-62
2023/03/18 10:05:52;;;;;;;6.82;2.88;;;14.30;69.20;;;;;;5011619;28;20034;-61
2023/03/18 10:08:40;;;;;;;7.57;2.95;;;14.30;69.00;;;;;;5014340;28;20045;-61
2023/03/18 10:11:23;;;;;;;4.65;2.38;;;14.40;68.20;;;;;;5015196;28;20104;-70
2023/03/18 10:14:07;;;;;;;5.70;2.63;;;14.60;67.40;;;;;;5006969;28;20488;-68
2023/03/18 10:16:51;;;;;;;6.90;2.78;;;14.60;67.50;;;;;;5016081;28;20046;-62
2023/03/18 10:19:27;;;;;;;6.13;3.30;;;14.60;67.30;;;;;;5026022;28;20057;-61
2023/03/18 10:22:09;;;;;;;6.55;2.90;;;14.50;67.20;;;;;;5035494;28;20102;-61
2023/03/18 10:24:50;;;;;;;6.45;2.55;;;14.50;67.10;;;;;;5029600;28;20045;-61
2023/03/18 10:27:38;;;;;;;4.35;2.20;;;14.50;66.20;;;;;;5013181;28;20053;-69
2023/03/18 10:30:30;;;;;;;5.75;2.38;;;14.60;66.40;;;;;;5010418;28;20049;-71
2023/03/18 10:33:14;;;;;;;5.43;2.40;;;14.70;67.30;;;;;;5015805;28;20556;-71
2023/03/18 10:35:54;;;;;;;4.68;2.08;;;14.70;65.80;;;;;;5018229;28;20042;-66
2023/03/18 10:38:33;;;;;;;7.55;2.40;;;14.90;66.00;;;;;;5031804;28;20394;-62
2023/03/18 10:41:16;;;;;;;5.95;1.80;;;15.00;66.10;;;;;;5034831;28;20053;-64
2023/03/18 10:43:51;;;;;;;7.20;1.70;;;15.10;64.30;;;;;;5030392;28;20065;-63
2023/03/18 10:46:36;;;;;;;5.07;1.67;;;15.20;64.00;;;;;;5015018;28;20576;-71
2023/03/18 10:49:17;;;;;;;5.47;2.13;;;15.30;63.80;;;;;;5013097;28;20042;-69
2023/03/18 10:51:56;;;;;;;4.30;1.80;;;15.30;65.90;;;;;;5010296;28;20049;-61
2023/03/18 10:54:35;;;;;;;3.95;1.50;;;15.40;65.10;;;;;;5010641;28;20048;-62
2023/03/18 10:57:13;;;;;;;3.67;1.55;;;15.60;64.90;;;;;;5009364;28;20057;-63
2023/03/18 10:59:49;;;;;;;5.25;1.73;;;15.60;63.60;;;;;;5012420;28;20559;-63
2023/03/18 11:02:29;;;;;;;3.67;1.40;;;15.60;63.20;;;;;;5006407;28;20038;-62
2023/03/18 11:05:15;;;;;;;6.43;1.80;;;15.70;64.80;;;;;;5012983;28;20050;-63
2023/03/18 11:07:57;;;;;;;4.10;1.95;;;15.60;65.70;;;;;;5013147;28;20144;-64
2023/03/18 11:10:34;;;;;;;4.35;1.42;;;15.80;66.20;;;;;;5009963;28;20049;-70
2023/03/18 11:13:07;;;;;;;6.20;1.80;;;15.90;65.80;;;;;;5007842;28;20094;-65
2023/03/18 11:15:47;;;;;;;4.38;2.17;;;16.00;65.20;;;;;;5011960;28;20050;-64
2023/03/18 11:18:24;;;;;;;5.70;1.73;;;16.00;64.90;;;;;;5018581;28;20199;-65
2023/03/18 11:21:02;;;;;;;4.47;1.95;;;16.00;66.20;;;;;;5038041;28;20052;-63
2023/03/18 11:23:47;;;;;;;3.20;1.58;;;16.00;64.20;;;;;;5029991;28;20053;-62
2023/03/18 11:26:22;;;;;;;5.60;1.77;;;16.00;65.40;;;;;;5033846;28;20053;-64
2023/03/18 11:29:17;;;;;;;3.53;1.60;;;16.00;64.30;;;;;;5030858;28;20511;-64
2023/03/18 11:31:58;;;;;;;6.47;1.90;;;16.00;65.60;;;;;;4998823;28;20103;-64
2023/03/18 11:34:33;;;;;;;5.13;1.80;;;16.00;64.20;;;;;;5008759;28;20141;-64
2023/03/18 11:37:11;;;;;;;6.43;1.95;;;15.90;65.70;;;;;;5011123;28;20146;-64
2023/03/18 11:39:47;;;;;;;5.68;1.73;;;15.90;64.50;;;;;;5012181;28;20135;-65
2023/03/18 11:42:23;;;;;;;4.78;1.90;;;16.00;65.00;;;;;;5015995;28;20081;-64
2023/03/18 11:45:02;;;;;;;4.13;1.52;;;16.00;64.80;;;;;;5014648;28;20432;-64
2023/03/18 11:47:42;;;;;;;;;;;16.10;64.20;;;;;;5035565;28;20053;-62
2023/03/18 11:50:22;;;;;;;4.15;1.52;;;16.10;64.30;;;;;;5032790;28;20387;-62
2023/03/18 11:53:02;;;;;;;3.92;1.70;;;16.10;65.10;;;;;;5035309;28;20050;-61
2023/03/18 11:55:38;;;;;;;;;;;16.10;64.70;;;;;;5031033;28;20145;-60
2023/03/18 11:58:47;;;;;;;4.82;1.92;;;16.10;64.20;;;;;;5033129;28;19928;-61
2023/03/18 12:01:29;;;;;;;5.80;1.70;;;16.10;64.90;;;;;;5033651;28;20042;-62
2023/03/18 12:04:38;;;;;;;4.57;1.80;;;16.20;64.70;;;;;;5033802;28;20048;-62
2023/03/18 12:07:42;;;;;;;3.95;1.52;;;16.20;64.40;;;;;;5033765;28;20050;-61
2023/03/18 12:10:25;;;;;;;4.13;2.03;;;16.30;64.90;;;;;;5034947;28;20057;-62
2023/03/18 12:13:13;;;;;;;5.45;1.80;;;16.20;65.50;;;;;;5033768;28;20049;-62
2023/03/18 12:16:00;;;;;;;5.67;2.57;;;16.10;65.90;;;;;;5007738;28;20049;-63
2023/03/18 12:18:56;;;;;;;4.78;2.38;;;16.10;65.90;;;;;;5010947;28;20404;-64
2023/03/18 12:21:54;;;;;;;8.77;2.97;;;16.20;64.60;;;;;;5012861;28;20212;-63
2023/03/18 12:24:51;;;;;;;9.40;5.28;;;16.20;63.70;;;;;;5011946;28;20053;-63
2023/03/18 12:27:37;;;;;;;12.75;7.18;;;16.30;65.30;;;;;;5014087;28;20390;-63
2023/03/18 12:30:45;;;;;;;16.38;9.38;;;16.40;64.50;;;;;;4998881;28;20057;-63
2023/03/18 12:33:36;;;;;;;21.13;12.40;;;16.40;65.50;;;;;;5013892;28;20046;-63
2023/03/18 12:36:20;;;;;;;16.45;9.88;;;16.50;66.10;;;;;;5014869;28;20182;-63
2023/03/18 12:39:26;;;;;;;17.40;10.85;;;16.60;65.30;;;;;;5012503;28;20155;-63
2023/03/18 12:42:08;;;;;;;13.02;8.02;;;16.50;65.30;;;;;;5014746;28;20514;-63
2023/03/18 12:44:57;;;;;;;16.98;9.60;;;16.50;62.90;;;;;;5025595;28;20041;-64
2023/03/18 12:47:35;;;;;;;16.02;9.18;;;16.50;63.70;;;;;;5013977;28;20390;-68
2023/03/18 12:50:16;;;;;;;17.15;9.88;;;16.50;64.30;;;;;;5014816;28;20504;-66
2023/03/18 12:52:55;;;;;;;20.50;14.23;;;16.50;62.80;;;;;;5017941;28;20063;-61
2023/03/18 12:55:31;;;;;;;20.27;11.43;;;16.50;63.30;;;;;;5038154;28;20477;-61
2023/03/18 12:58:10;;;;;;;27.10;16.85;;;16.50;64.70;;;;;;5017709;28;20085;-60
2023/03/18 13:00:49;;;;;;;23.48;15.27;;;16.50;64.10;;;;;;5018549;28;20515;-60
2023/03/18 13:03:31;;;;;;;19.38;11.25;;;16.50;65.10;;;;;;5017734;28;20311;-60
2023/03/18 13:06:10;;;;;;;21.52;12.77;;;16.50;63.80;;;;;;5018720;28;20103;-71
2023/03/18 13:08:57;;;;;;;;;;;16.50;64.20;;;;;;5020257;28;20129;-71
2023/03/18 13:11:40;;;;;;;17.73;10.75;;;16.50;64.30;;;;;;5017521;28;20020;-71
2023/03/18 13:14:20;;;;;;;19.40;10.85;;;16.50;64.00;;;;;;5018079;28;20056;-71
2023/03/18 13:16:57;;;;;;;;;;;16.50;64.40;;;;;;5019006;28;20144;-67
2023/03/18 13:19:31;;;;;;;19.08;10.65;;;16.50;63.60;;;;;;5017633;28;20315;-64
2023/03/18 13:22:22;;;;;;;18.98;11.18;;;16.50;63.30;;;;;;5019719;28;20053;-72
2023/03/18 13:25:05;;;;;;;19.02;11.00;;;16.50;64.40;;;;;;5018685;28;20045;-71
2023/03/18 13:28:07;;;;;;;18.75;10.25;;;16.60;64.80;;;;;;5015553;28;20046;-62
2023/03/18 13:30:56;;;;;;;18.83;10.75;;;16.60;63.80;;;;;;5010613;28;20120;-62
2023/03/18 13:33:52;;;;;;;20.38;11.77;;;16.60;63.40;;;;;;5015781;28;20041;-62
2023/03/18 13:36:48;;;;;;;17.83;10.68;;;16.50;64.50;;;;;;5018195;28;20498;-67
2023/03/18 13:39:34;;;;;;;15.95;8.60;;;16.40;64.20;;;;;;5018572;28;20053;-68
2023/03/18 13:42:20;;;;;;;14.18;8.57;;;16.40;63.10;;;;;;5018560;28;20100;-69
2023/03/18 13:45:09;;;;;;;14.45;8.35;;;16.30;63.10;;;;;;5023671;28;20055;-69
2023/03/18 13:47:43;;;;;;;14.65;9.05;;;16.30;64.80;;;;;;5037312;28;20068;-62
2023/03/18 13:50:32;;;;;;;16.60;8.98;;;16.20;64.30;;;;;;5035485;28;20068;-65